Terminal Aerodrome Forecast
Issued by NWS Tulsa, OK

Home | Current Version | Previous Version | Text Only | Print | Product List | Glossary On
Versions: 1 2 3 4 5 6 7 8 9 10 11 12 13 14 15 16
057
FTUS44 KTSA 030520
TAFFSM
TAF
KFSM 030520Z 0306/0406 00000KT P6SM SKC
      TEMPO 0310/0314 4SM BR
     FM031700 33007KT P6SM SCT050
     FM040000 28004KT P6SM SKC=

USA.gov is the U.S. government's official web portal to all federal, state and local government web resources and services.